Terminal Aerodrome Forecast
Issued by NWS

Home | Current Version | Previous Version | Text Only | Print | Product List | Glossary On
Versions: 1 2 3 4 5 6 7 8 9 10 11 12 13 14 15 16 17 18 19 20 21 22 23 24 25 26 27 28 29 30 31
691
FTUS43 KLSX 300935 AAB
TAFUIN
TAF AMD
KUIN 300935Z 3010/3106 10013KT 5SM -TSRA BR SCT015 BKN025CB
      TEMPO 3010/3012 3SM -TSRA BR BKN007 OVC025CB
     FM301400 14007KT P6SM VCSH OVC025
     FM301700 26007KT P6SM -SHRA VCTS OVC030CB
     FM302200 33009KT 4SM SHRA VCTS SCT007 OVC015CB=

USA.gov is the U.S. government's official web portal to all federal, state and local government web resources and services.